HAAB/ADD METAR and TAF weather

Enter ICAO airport designator
Station Type Date Time Source
HAAB METAR 2022/06/27 09:00 UTC NOAA

HAAB 270900Z 14002KT 99999 SCT025 20/14 Q1027


Station Type Date Time Source
HAAB Decoded METAR 2022/06/27 09:00 UTC NOAA

Addis Ababa, Ethiopia (HAAB) 08-59N 038-48E 2324M
Jun 27, 2022 - 05:00 AM EDT / 2022.06.27 0900 UTC
Wind: from the SE (140 degrees) at 2 MPH (2 KT):0
Sky conditions: partly cloudy
Temperature: 68 F (20 C)
Dew Point: 57 F (14 C)
Relative Humidity: 68%
Pressure (altimeter): 30.33 in. Hg (1027 hPa)
ob: HAAB 270900Z 14002KT 99999 SCT025 20/14 Q1027
cycle: 9

Station Type Date Time Source
HAAB TAF 2022/06/27 06:27 UTC NOAA

TAF TAF HAAB 270330Z 2706/2812 24007KT 9999 BKN030 BKN090
BECMG 2708/2713 27005KT 8000 SHRA BKN020

Example: see airport list